EW8072 Weather Reports


time (UTC)temp
C
wind
direction
speed
KPH
gust
KPH
rain 1hr
cm
rain 24hr
cm
rain mn
cm
humidity
%
barometer
mb
20220927004535 26 77 6.4 17.7 0.00 0.00 0.00 33 1046.8
20220927003013 27 53 8.0 17.7 0.00 0.00 0.00 32 1046.9
20220927001511 27 77 9.7 20.9 0.00 0.00 0.00 31 1046.9
20220927000005 27 68 12.9 24.1 0.00 0.00 0.00 31 1046.8
20220926234601 27 88 9.7 20.9 0.00 0.00 0.00 31 1046.7
20220926234501 27 94 9.7 20.9 0.00 0.00 0.00 30 1046.7
20220926233049 27 39 11.3 19.3 0.00 0.00 0.00 30 1046.7
20220926231537 27 61 8.0 24.1 0.00 0.00 0.00 31 1046.6
20220926230052 27 68 16.1 27.4 0.00 0.00 0.00 30 1046.6
20220926224544 28 71 16.1 29.0 0.00 0.00 0.00 30 1046.6
20220926223013 28 59 8.0 20.9 0.00 0.00 0.00 31 1046.5
20220926221513 27 1 11.3 30.6 0.00 0.00 0.00 32 1046.5
20220926220003 28 70 9.7 19.3 0.00 0.00 0.00 31 1046.6
20220926214507 28 30 9.7 27.4 0.00 0.00 0.00 32 1046.7
20220926213050 28 71 12.9 20.9 0.00 0.00 0.00 30 1046.8
20220926211545 28 85 9.7 20.9 0.00 0.00 0.00 28 1046.9
20220926210043 28 70 11.3 27.4 0.00 0.00 0.00 28 1047.0
20220926204538 28 58 9.7 25.7 0.00 0.00 0.00 30 1047.1
20220926203021 27 65 9.7 22.5 0.00 0.00 0.00 31 1047.4
20220926201524 28 92 12.9 22.5 0.00 0.00 0.00 32 1047.6
20220926200032 27 39 8.0 27.4 0.00 0.00 0.00 35 1048.2
20220926194510 27 73 12.9 24.1 0.00 0.00 0.00 34 1048.4
20220926193054 28 63 11.3 25.7 0.00 0.00 0.00 35 1048.7
20220926191547 27 84 16.1 32.2 0.00 0.00 0.00 35 1048.8
20220926190036 27 89 9.7 24.1 0.00 0.00 0.00 39 1049.1
20220926184535 26 66 16.1 29.0 0.00 0.00 0.00 40 1049.3
20220926183015 26 73 8.0 22.5 0.00 0.00 0.00 42 1049.6
20220926181514 26 11 9.7 20.9 0.00 0.00 0.00 42 1049.8
20220926180008 26 124 8.0 20.9 0.00 0.00 0.00 44 1049.9
20220926174559 25 108 8.0 14.5 0.00 0.00 0.00 46 1050.1
20220926173035 25 74 8.0 20.9 0.00 0.00 0.00 46 1050.3
20220926171535 25 15 4.8 17.7 0.00 0.00 0.00 48 1050.3
20220926170039 24 34 6.4 16.1 0.00 0.00 0.00 50 1050.5
20220926164522 24 68 8.0 19.3 0.00 0.00 0.00 51 1050.6
20220926163005 23 63 6.4 19.3 0.00 0.00 0.00 53 1050.6
20220926161559 23 53 8.0 17.7 0.00 0.00 0.00 53 1050.6
20220926161507 23 88 9.7 17.7 0.00 0.00 0.00 53 1050.6
20220926160054 22 81 8.0 16.1 0.00 0.00 0.00 55 1050.6
20220926154549 22 25 0.0 6.4 0.00 0.00 0.00 58 1050.6
20220926153042 21 71 1.6 8.0 0.00 0.00 0.00 60 1050.5
20220926151525 21 77 0.0 3.2 0.00 0.00 0.00 60 1050.4
20220926150020 21 195 0.0 1.6 0.00 0.00 0.00 63 1050.2
20220926144526 21 204 0.0 1.6 0.00 0.00 0.00 63 1050.3
20220926143133 20 203 0.0 3.2 0.00 0.00 0.00 65 1050.2
20220926141536 -17 0.0 0.0 0.00 0.00 0.00 1050.1
20220926140028 -17 0.0 0.0 0.00 0.00 0.00 1050.0
20220926134620 -17 0.0 0.0 0.00 0.00 0.00 1049.8
20220926133037 -17 0.0 0.0 0.00 0.00 0.00 1049.6
20220926131654 -17 0.0 0.0 0.00 0.00 0.00 1049.5
20220926130138 -17 0.0 0.0 0.00 0.00 0.00 1049.3
20220926130002 -17 0.0 0.0 0.00 0.00 0.00 1049.3
20220926124549 -17 0.0 0.0 0.00 0.00 0.00 1049.2
20220926123110 -17 0.0 0.0 0.00 0.00 0.00 1049.0
20220926121604 -17 0.0 0.0 0.00 0.00 0.00 1048.9
20220926114528 -17 0.0 0.0 0.00 0.00 0.00 1048.6
20220926113006 -17 0.0 0.0 0.00 0.00 0.00 1048.4
20220926111651 -17 0.0 0.0 0.00 0.00 0.00 1048.3
20220926110042 -17 0.0 0.0 0.00 0.00 0.00 1048.2
20220926103056 -17 0.0 0.0 0.00 0.00 0.00 1048.1
20220926101534 20 288 4.8 12.9 0.00 0.00 0.00 69 1047.7
20220926100027 21 263 6.4 14.5 0.00 0.00 0.00 61 1047.9
20220926094518 21 321 8.0 14.5 0.00 0.00 0.00 60 1047.8
20220926093103 21 304 12.9 20.9 0.00 0.00 0.00 59 1048.0
20220926091610 21 311 11.3 22.5 0.00 0.00 0.00 58 1048.0
20220926090054 22 310 11.3 19.3 0.00 0.00 0.00 56 1047.7
20220926084532 23 300 9.7 12.9 0.00 0.00 0.00 49 1047.7
20220926083008 23 303 1.6 6.4 0.00 0.00 0.00 48 1047.6
20220926081508 23 297 0.0 3.2 0.00 0.00 0.00 47 1047.5
20220926080019 23 297 0.0 4.8 0.00 0.00 0.00 47 1047.5
20220926074504 23 360 0.0 1.6 0.00 0.00 0.00 48 1047.5
20220926073044 23 360 0.0 3.2 0.00 0.00 0.00 47 1047.4
20220926071545 23 276 0.0 4.8 0.00 0.00 0.00 47 1047.4
20220926070039 23 293 0.0 3.2 0.00 0.00 0.00 47 1047.5
20220926064542 23 235 0.0 1.6 0.00 0.00 0.00 47 1047.3
20220926063014 23 273 0.0 6.4 0.00 0.00 0.00 46 1047.4
20220926061510 23 287 3.2 9.7 0.00 0.00 0.00 45 1047.3
20220926060001 23 301 3.2 9.7 0.00 0.00 0.00 44 1047.4
20220926054611 24 301 6.4 12.9 0.00 0.00 0.00 44 1047.4
20220926053049 24 292 6.4 11.3 0.00 0.00 0.00 43 1047.4
20220926051542 24 287 0.0 4.8 0.00 0.00 0.00 43 1047.2
20220926050019 24 301 0.0 3.2 0.00 0.00 0.00 43 1047.0
20220926044534 24 297 3.2 11.3 0.00 0.00 0.00 42 1047.0
20220926043100 24 332 4.8 9.7 0.00 0.00 0.00 42 1047.0
20220926043002 24 312 4.8 9.7 0.00 0.00 0.00 42 1047.0
20220926041551 24 319 0.0 9.7 0.00 0.00 0.00 41 1046.8
20220926040113 24 266 0.0 9.7 0.00 0.00 0.00 40 1046.7
20220926034553 24 284 0.0 4.8 0.00 0.00 0.00 39 1046.5
20220926033027 24 304 0.0 8.0 0.00 0.00 0.00 39 1046.5
20220926031523 24 293 4.8 8.0 0.00 0.00 0.00 39 1046.2
20220926030026 25 306 3.2 8.0 0.00 0.00 0.00 39 1046.1
20220926024509 25 309 4.8 12.9 0.00 0.00 0.00 37 1045.8
20220926023055 25 6 6.4 11.3 0.00 0.00 0.00 36 1045.6
20220926021543 26 310 3.2 9.7 0.00 0.00 0.00 34 1045.2
20220926020126 26 323 3.2 8.0 0.00 0.00 0.00 33 1045.0
20220926014538 26 321 3.2 8.0 0.00 0.00 0.00 33 1044.7
20220926013033 26 312 3.2 8.0 0.00 0.00 0.00 32 1044.7
20220926011513 27 301 3.2 8.0 0.00 0.00 0.00 32 1044.4
20220926010017 27 307 4.8 8.0 0.00 0.00 0.00 31 1044.4